createdAt,value
2018-05-16T00:01:54.966Z,11.75
2018-05-16T00:04:22.480Z,12.45
2018-05-16T00:06:49.982Z,10.88
2018-05-16T00:09:17.501Z,11.93
2018-05-16T00:11:45.017Z,11.38
2018-05-16T00:14:13.276Z,11.00
2018-05-16T00:16:40.802Z,11.55
2018-05-16T00:19:09.792Z,11.82
2018-05-16T00:21:37.316Z,11.70
2018-05-16T00:26:39.481Z,12.48
2018-05-16T00:29:07.746Z,12.32
2018-05-16T00:31:35.525Z,12.15
2018-05-16T00:34:03.808Z,11.77
2018-05-16T00:36:32.077Z,13.05
2018-05-16T00:39:00.373Z,11.95
2018-05-16T00:41:27.876Z,12.07
2018-05-16T00:43:55.384Z,11.35
2018-05-16T00:46:22.979Z,11.48
2018-05-16T00:48:50.502Z,12.82
2018-05-16T00:51:30.654Z,12.43
2018-05-16T00:53:58.934Z,12.18
2018-05-16T00:56:27.191Z,11.68
2018-05-16T00:58:54.704Z,12.25
2018-05-16T01:01:22.200Z,12.20
2018-05-16T01:03:49.721Z,12.77
2018-05-16T01:06:17.227Z,12.45
2018-05-16T01:08:44.725Z,12.15
2018-05-16T01:11:12.301Z,12.45
2018-05-16T01:13:39.930Z,13.05
2018-05-16T01:16:07.485Z,12.75
2018-05-16T01:18:35.766Z,14.07
2018-05-16T01:21:03.273Z,12.82
2018-05-16T01:23:30.817Z,14.68
2018-05-16T01:25:58.929Z,15.98
2018-05-16T01:28:26.439Z,16.58
2018-05-16T01:30:53.962Z,16.73
2018-05-16T01:33:22.301Z,16.35
2018-05-16T01:35:50.196Z,16.12
2018-05-16T01:38:17.708Z,16.23
2018-05-16T01:40:45.216Z,16.65
2018-05-16T01:43:12.760Z,15.70
2018-05-16T01:45:40.285Z,15.32
2018-05-16T01:48:07.802Z,16.33
2018-05-16T01:50:36.068Z,17.40
2018-05-16T01:53:03.577Z,16.25
2018-05-16T01:55:31.076Z,17.30
2018-05-16T01:57:58.599Z,15.85
2018-05-16T02:00:26.144Z,16.90
2018-05-16T02:02:53.648Z,17.17
2018-05-16T02:05:21.177Z,17.80
2018-05-16T02:07:48.680Z,16.85
2018-05-16T02:10:16.202Z,16.27
2018-05-16T02:12:43.701Z,18.17
2018-05-16T02:15:11.214Z,17.27
2018-05-16T02:17:38.805Z,18.45
2018-05-16T02:20:06.308Z,16.30
2018-05-16T02:22:33.813Z,16.17
2018-05-16T02:25:01.329Z,17.02
2018-05-16T02:27:28.833Z,16.75
2018-05-16T02:29:56.343Z,16.33
2018-05-16T02:32:23.858Z,16.08
2018-05-16T02:34:51.385Z,16.30
2018-05-16T02:37:18.905Z,16.02
2018-05-16T02:39:47.182Z,16.23
2018-05-16T02:42:15.469Z,15.38
2018-05-16T02:44:42.971Z,15.50
2018-05-16T02:47:10.485Z,15.57
2018-05-16T02:49:38.784Z,16.25
2018-05-16T02:52:06.376Z,16.30
2018-05-16T02:54:34.721Z,16.02
2018-05-16T02:57:02.146Z,15.80
2018-05-16T02:59:30.422Z,16.58
2018-05-16T03:01:58.693Z,16.60
2018-05-16T03:04:26.211Z,16.50
2018-05-16T03:06:55.104Z,15.27
2018-05-16T03:09:22.613Z,15.90
2018-05-16T03:11:50.138Z,16.48
2018-05-16T03:14:17.730Z,16.65
2018-05-16T03:16:45.998Z,15.63
2018-05-16T03:19:13.537Z,15.48
2018-05-16T03:21:41.084Z,15.82
2018-05-16T03:24:09.206Z,17.23
2018-05-16T03:26:37.468Z,16.35
2018-05-16T03:29:04.970Z,17.00
2018-05-16T03:31:32.480Z,16.55
2018-05-16T03:34:00.041Z,16.23
2018-05-16T03:36:27.556Z,16.17
2018-05-16T03:38:55.062Z,16.08
2018-05-16T03:41:22.581Z,16.85
2018-05-16T03:43:50.087Z,16.23
2018-05-16T03:46:18.376Z,16.55
2018-05-16T03:48:46.641Z,15.77
2018-05-16T03:51:14.940Z,15.95
2018-05-16T03:53:42.465Z,15.98
2018-05-16T03:56:09.956Z,16.87
2018-05-16T03:58:49.953Z,15.55
2018-05-16T04:01:29.459Z,16.65
2018-05-16T04:04:08.708Z,17.25
2018-05-16T04:06:36.236Z,16.05
2018-05-16T04:09:03.826Z,16.65
2018-05-16T04:11:31.401Z,16.98
2018-05-16T04:13:58.969Z,18.33
2018-05-16T04:16:26.490Z,18.40
2018-05-16T04:18:54.120Z,17.60
2018-05-16T04:21:22.413Z,18.42
2018-05-16T04:23:50.688Z,18.40
2018-05-16T04:26:18.953Z,17.75
2018-05-16T04:28:47.484Z,19.40
2018-05-16T04:31:14.987Z,19.35
2018-05-16T04:33:42.501Z,18.85
2018-05-16T04:36:10.478Z,20.17
2018-05-16T04:38:37.981Z,19.30
2018-05-16T04:41:06.261Z,19.80
2018-05-16T04:43:34.536Z,20.37
2018-05-16T04:46:02.816Z,20.17
2018-05-16T04:48:31.080Z,20.30
2018-05-16T04:50:58.693Z,20.10
2018-05-16T04:53:26.258Z,20.42
2018-05-16T04:55:53.859Z,17.95
2018-05-16T04:58:21.446Z,18.40
2018-05-16T05:00:49.747Z,18.37
2018-05-16T05:03:17.240Z,17.73
2018-05-16T05:05:44.754Z,16.85
2018-05-16T05:08:12.814Z,17.48
2018-05-16T05:10:41.086Z,17.73
2018-05-16T05:13:09.371Z,17.30
2018-05-16T05:15:37.644Z,17.55
2018-05-16T05:18:05.981Z,17.87
2018-05-16T05:20:33.425Z,19.17
2018-05-16T05:23:00.958Z,18.73
2018-05-16T05:25:28.544Z,18.12
2018-05-16T05:27:56.059Z,19.17
2018-05-16T05:30:24.435Z,18.77
2018-05-16T05:32:51.873Z,18.42
2018-05-16T05:35:19.389Z,19.98
2018-05-16T05:37:46.894Z,19.37
2018-05-16T05:40:15.181Z,18.80
2018-05-16T05:42:43.469Z,19.15
2018-05-16T05:45:11.737Z,18.37
2018-05-16T05:47:40.182Z,18.77
2018-05-16T05:50:07.770Z,19.27
2018-05-16T05:52:36.075Z,19.52
2018-05-16T05:55:03.590Z,18.17
2018-05-16T05:57:31.255Z,18.55
2018-05-16T05:59:58.853Z,17.75
2018-05-16T06:02:26.373Z,18.87
2018-05-16T06:04:54.490Z,17.37
2018-05-16T06:07:22.042Z,17.30
2018-05-16T06:09:49.560Z,17.80
2018-05-16T06:12:17.458Z,16.92
2018-05-16T06:14:45.726Z,16.60
2018-05-16T06:17:14.181Z,17.02
2018-05-16T06:19:41.829Z,17.58
2018-05-16T06:22:09.429Z,17.17
2018-05-16T06:24:37.028Z,17.27
2018-05-16T06:27:04.662Z,17.12
2018-05-16T06:29:32.975Z,17.60
2018-05-16T06:32:00.487Z,17.42
2018-05-16T06:34:28.001Z,16.45
2018-05-16T06:36:55.510Z,17.75
2018-05-16T06:39:23.789Z,16.87
2018-05-16T06:41:52.148Z,18.30
2018-05-16T06:44:19.677Z,19.27
2018-05-16T06:46:47.249Z,18.73
2018-05-16T06:49:14.830Z,18.87
2018-05-16T06:51:42.421Z,18.77
2018-05-16T06:54:09.997Z,18.85
2018-05-16T06:56:37.625Z,18.77
2018-05-16T06:59:05.913Z,18.52
2018-05-16T07:01:34.188Z,19.60
2018-05-16T07:04:02.538Z,20.23
2018-05-16T07:06:29.996Z,19.98
2018-05-16T07:08:58.110Z,21.00
2018-05-16T07:11:25.621Z,19.30
2018-05-16T07:13:53.125Z,23.10
2018-05-16T07:16:20.637Z,23.60
2018-05-16T07:18:48.203Z,23.62
2018-05-16T07:21:15.680Z,23.42
2018-05-16T07:23:43.181Z,23.10
2018-05-16T07:26:10.685Z,20.88
2018-05-16T07:28:38.270Z,22.55
2018-05-16T07:31:06.550Z,24.35
2018-05-16T07:33:34.957Z,24.45
2018-05-16T07:36:02.476Z,23.80
2018-05-16T07:38:29.993Z,24.48
2018-05-16T07:40:57.507Z,23.48
2018-05-16T07:43:25.813Z,24.73
2018-05-16T07:45:53.337Z,23.52
2018-05-16T07:48:21.664Z,24.80
2018-05-16T07:50:50.017Z,23.70
2018-05-16T07:53:17.521Z,24.45
2018-05-16T07:55:45.024Z,22.48
2018-05-16T07:58:12.592Z,24.20
2018-05-16T08:00:40.093Z,22.98
2018-05-16T08:03:07.683Z,23.85
2018-05-16T08:05:35.163Z,23.87
2018-05-16T08:08:02.667Z,24.77
2018-05-16T08:10:31.202Z,24.52
2018-05-16T08:12:59.517Z,26.15
2018-05-16T08:15:27.145Z,25.15
2018-05-16T08:17:55.413Z,26.15
2018-05-16T08:20:23.705Z,25.50
2018-05-16T08:22:51.201Z,26.42
2018-05-16T08:25:18.753Z,24.02
2018-05-16T08:27:46.265Z,25.80
2018-05-16T08:30:14.541Z,25.45
2018-05-16T08:32:42.830Z,24.45
2018-05-16T08:35:10.336Z,25.17
2018-05-16T08:37:37.855Z,24.17
2018-05-16T08:40:05.443Z,26.25
2018-05-16T08:42:33.327Z,22.65
2018-05-16T08:45:01.317Z,24.00
2018-05-16T08:47:29.610Z,23.73
2018-05-16T08:49:57.878Z,24.33
2018-05-16T08:52:30.309Z,22.17
2018-05-16T08:54:57.809Z,23.35
2018-05-16T08:57:25.353Z,24.37
2018-05-16T08:59:52.867Z,22.85
2018-05-16T09:02:20.755Z,23.12
2018-05-16T09:04:49.030Z,24.05
2018-05-16T09:07:16.586Z,23.75
2018-05-16T09:09:44.103Z,24.33
2018-05-16T09:12:11.666Z,24.12
2018-05-16T09:14:39.940Z,24.40
2018-05-16T09:17:13.078Z,23.75
2018-05-16T09:19:40.625Z,23.65
2018-05-16T09:22:08.853Z,22.33
2018-05-16T09:24:36.373Z,23.02
2018-05-16T09:27:04.033Z,23.20
2018-05-16T09:29:31.549Z,23.15
2018-05-16T09:31:59.889Z,22.37
2018-05-16T09:34:27.463Z,23.92
2018-05-16T09:36:55.008Z,24.77
2018-05-16T09:39:22.525Z,23.67
2018-05-16T09:41:50.045Z,22.67
2018-05-16T09:44:17.551Z,21.98
2018-05-16T09:46:45.061Z,21.83
2018-05-16T09:49:12.672Z,23.38
2018-05-16T09:51:40.866Z,23.55
2018-05-16T09:54:08.385Z,23.75
2018-05-16T09:56:36.670Z,24.73
2018-05-16T09:59:04.196Z,22.92
2018-05-16T10:01:31.715Z,22.80
2018-05-16T10:03:59.252Z,22.83
2018-05-16T10:06:27.699Z,23.50
2018-05-16T10:08:55.325Z,22.08
2018-05-16T10:11:22.929Z,21.42
2018-05-16T10:13:51.947Z,22.37
2018-05-16T10:16:19.466Z,21.10
2018-05-16T10:18:47.003Z,24.70
2018-05-16T10:21:14.505Z,23.17
2018-05-16T10:23:43.691Z,24.52
2018-05-16T10:26:12.505Z,23.50
2018-05-16T10:41:40.077Z,22.80
2018-05-16T10:44:07.698Z,25.62
2018-05-16T10:46:35.225Z,25.27
2018-05-16T10:49:03.613Z,25.17
2018-05-16T10:51:31.210Z,25.77
2018-05-16T10:53:59.504Z,24.30
2018-05-16T10:56:27.036Z,22.83
2018-05-16T10:58:55.398Z,25.50
2018-05-16T11:01:22.913Z,23.95
2018-05-16T11:03:51.402Z,21.98
2018-05-16T11:06:18.717Z,23.25
2018-05-16T11:08:51.019Z,23.00
2018-05-16T11:11:19.401Z,21.92
2018-05-16T11:13:47.678Z,20.95
2018-05-16T11:16:15.182Z,22.10
2018-05-16T11:18:42.708Z,23.58
2018-05-16T11:21:10.223Z,17.85
2018-05-16T11:23:42.386Z,17.42
2018-05-16T11:26:11.323Z,15.85
2018-05-16T11:28:38.857Z,15.40
2018-05-16T11:31:06.656Z,12.75
2018-05-16T11:33:34.870Z,12.75
2018-05-16T11:36:02.423Z,11.20
2018-05-16T11:38:29.931Z,11.32
2018-05-16T11:40:57.461Z,14.45
2018-05-16T11:43:25.737Z,14.70
2018-05-16T11:45:54.069Z,14.70
2018-05-16T11:48:25.299Z,15.07
2018-05-16T11:50:52.821Z,14.43
2018-05-16T11:53:21.150Z,15.15
2018-05-16T11:55:49.295Z,16.23
2018-05-16T11:58:16.803Z,16.80
2018-05-16T12:00:44.426Z,17.00
2018-05-16T12:03:12.007Z,16.05
2018-05-16T12:05:43.505Z,15.93
2018-05-16T12:08:11.814Z,16.30
2018-05-16T12:10:39.335Z,16.45
2018-05-16T12:13:07.634Z,15.13
2018-05-16T12:15:35.137Z,16.40
2018-05-16T12:18:02.656Z,16.00
2018-05-16T12:20:30.174Z,14.87
2018-05-16T12:22:57.670Z,16.25
2018-05-16T12:25:25.213Z,14.98
2018-05-16T12:27:53.481Z,14.85
2018-05-16T12:30:20.996Z,13.23
2018-05-16T12:32:48.529Z,14.50
2018-05-16T12:35:16.090Z,14.63
2018-05-16T12:37:44.214Z,13.40
2018-05-16T12:40:11.717Z,14.20
2018-05-16T12:42:51.241Z,13.60
2018-05-16T12:45:19.652Z,15.70
2018-05-16T12:47:47.156Z,15.45
2018-05-16T12:50:15.606Z,14.77
2018-05-16T12:52:43.269Z,15.73
2018-05-16T12:55:10.882Z,14.65
2018-05-16T12:57:39.161Z,15.52
2018-05-16T13:00:07.488Z,15.40
2018-05-16T13:02:35.007Z,15.43
2018-05-16T13:05:03.431Z,15.60
2018-05-16T13:07:30.937Z,14.55
2018-05-16T13:09:59.281Z,16.10
2018-05-16T13:12:26.836Z,14.77
2018-05-16T13:14:54.369Z,14.05
2018-05-16T13:17:22.078Z,13.85
2018-05-16T13:19:49.601Z,14.23
2018-05-16T13:22:17.906Z,13.68
2018-05-16T13:24:45.434Z,13.43
2018-05-16T13:27:12.969Z,12.93
2018-05-16T13:29:40.485Z,12.63
2018-05-16T13:32:08.962Z,11.80
2018-05-16T13:34:36.492Z,12.85
2018-05-16T13:37:03.996Z,11.98
2018-05-16T13:39:31.553Z,12.43
2018-05-16T13:41:59.937Z,11.88
2018-05-16T13:44:27.565Z,11.02
2018-05-16T13:46:55.112Z,10.75
2018-05-16T13:49:22.642Z,10.32
2018-05-16T13:51:50.938Z,11.05
2018-05-16T13:54:18.481Z,10.45
2018-05-16T13:56:47.093Z,10.90
2018-05-16T13:59:14.606Z,10.23
2018-05-16T14:01:47.217Z,10.52
2018-05-16T14:04:19.161Z,10.00
2018-05-16T14:06:47.438Z,10.13
2018-05-16T14:09:15.790Z,10.20
2018-05-16T14:11:43.902Z,11.18
2018-05-16T14:14:11.401Z,11.63
2018-05-16T14:16:38.960Z,11.93
2018-05-16T14:19:06.540Z,11.32
2018-05-16T14:21:34.682Z,11.32
2018-05-16T14:24:02.213Z,12.43
2018-05-16T14:26:30.314Z,12.48
2018-05-16T14:28:58.326Z,13.07
2018-05-16T14:31:25.842Z,14.73
2018-05-16T14:33:54.830Z,14.27
2018-05-16T14:36:22.330Z,15.02
2018-05-16T14:38:49.857Z,12.88
2018-05-16T14:41:18.053Z,12.73
2018-05-16T14:43:45.573Z,13.27
2018-05-16T14:46:13.090Z,13.00
2018-05-16T14:48:40.621Z,13.68
2018-05-16T14:51:08.142Z,12.90
2018-05-16T14:53:35.662Z,12.65
2018-05-16T15:09:03.234Z,13.57
2018-05-16T15:11:31.521Z,12.77
2018-05-16T15:13:59.961Z,12.50
2018-05-16T15:16:27.491Z,12.27
2018-05-16T15:18:54.998Z,13.73
2018-05-16T15:21:24.173Z,13.65
2018-05-16T15:23:51.668Z,14.57
2018-05-16T15:26:19.954Z,14.50
2018-05-16T15:28:48.253Z,14.65
2018-05-16T15:31:15.762Z,13.93
2018-05-16T15:33:44.868Z,13.60
2018-05-16T15:36:13.250Z,13.15
2018-05-16T15:38:41.539Z,13.30
2018-05-16T15:41:10.786Z,13.52
2018-05-16T15:43:39.129Z,14.02
2018-05-16T15:46:06.650Z,14.05
2018-05-16T15:48:34.251Z,14.45
2018-05-16T15:51:01.786Z,15.32
2018-05-16T15:53:32.485Z,14.25
2018-05-16T15:56:00.732Z,14.48
2018-05-16T15:58:28.509Z,13.85
2018-05-16T16:01:00.729Z,14.80
2018-05-16T16:03:29.013Z,15.30
2018-05-16T16:05:57.434Z,13.85
2018-05-16T16:08:25.268Z,14.30
2018-05-16T16:10:53.596Z,14.38
2018-05-16T16:13:21.496Z,15.10
2018-05-16T16:15:50.437Z,14.95
2018-05-16T16:18:17.967Z,14.27
2018-05-16T16:20:46.181Z,14.40
2018-05-16T16:23:13.702Z,13.85
2018-05-16T16:25:41.680Z,13.68
2018-05-16T16:28:09.250Z,14.98
2018-05-16T16:41:48.142Z,14.38
2018-05-16T16:44:15.664Z,15.68
2018-05-16T16:46:43.268Z,14.55
2018-05-16T16:49:11.181Z,21.77
2018-05-16T16:51:38.706Z,15.93
2018-05-16T16:54:06.237Z,15.55
2018-05-16T16:56:34.532Z,16.05
2018-05-16T16:59:02.090Z,16.15
2018-05-16T17:01:29.596Z,15.80
2018-05-16T17:03:57.109Z,16.17
2018-05-16T17:06:24.617Z,16.92
2018-05-16T17:08:52.141Z,16.52
2018-05-16T17:11:19.664Z,16.50
2018-05-16T17:13:47.957Z,17.02
2018-05-16T17:16:15.581Z,17.00
2018-05-16T17:18:43.774Z,17.80
2018-05-16T17:21:12.187Z,17.30
2018-05-16T17:23:39.742Z,16.70
2018-05-16T17:26:07.432Z,17.67
2018-05-16T17:28:35.010Z,17.73
2018-05-16T17:31:02.574Z,18.70
2018-05-16T17:33:30.154Z,17.80
2018-05-16T17:35:58.437Z,18.98
2018-05-16T17:38:26.743Z,36.60
2018-05-16T17:40:54.270Z,21.58
2018-05-16T17:43:22.654Z,18.62
2018-05-16T17:45:50.113Z,17.65
2018-05-16T17:48:18.527Z,18.90
2018-05-16T17:50:47.139Z,18.90
2018-05-16T17:53:14.693Z,18.65
2018-05-16T17:55:42.199Z,18.92
2018-05-16T17:58:10.491Z,18.90
2018-05-16T18:00:38.101Z,19.08
2018-05-16T18:03:05.606Z,18.90
2018-05-16T18:05:33.137Z,18.25
2018-05-16T18:08:00.655Z,18.02
2018-05-16T18:10:29.140Z,16.90
2018-05-16T18:13:18.422Z,17.17
2018-05-16T18:15:57.735Z,16.90
2018-05-16T18:18:25.272Z,15.77
2018-05-16T18:20:52.813Z,14.98
2018-05-16T18:23:21.102Z,13.60
2018-05-16T18:25:48.668Z,11.80
2018-05-16T18:28:16.249Z,10.60
2018-05-16T18:30:43.868Z,10.48
2018-05-16T18:33:12.154Z,10.07
2018-05-16T18:35:41.900Z,9.77
2018-05-16T18:38:09.404Z,10.27
2018-05-16T18:40:36.917Z,9.40
2018-05-16T18:43:04.430Z,9.40
2018-05-16T18:45:32.701Z,9.25
2018-05-16T18:48:00.241Z,9.82
2018-05-16T18:50:27.816Z,10.13
2018-05-16T18:52:55.339Z,10.43
2018-05-16T19:08:22.914Z,10.40
2018-05-16T19:10:50.455Z,10.18
2018-05-16T19:13:18.024Z,11.60
2018-05-16T19:15:45.530Z,17.42
2018-05-16T19:18:13.821Z,10.95
2018-05-16T19:20:41.369Z,10.93
2018-05-16T19:23:09.678Z,11.18
2018-05-16T19:25:37.199Z,12.18
2018-05-16T19:28:05.477Z,10.82
2018-05-16T19:30:33.770Z,10.40
2018-05-16T19:33:01.308Z,10.07
2018-05-16T19:35:29.595Z,9.60
2018-05-16T19:37:57.867Z,9.80
2018-05-16T19:40:26.163Z,10.75
2018-05-16T19:42:53.710Z,10.80
2018-05-16T19:45:22.046Z,10.90
2018-05-16T19:47:49.604Z,9.85
2018-05-16T19:50:17.742Z,9.98
2018-05-16T19:52:45.289Z,9.77
2018-05-16T19:55:12.810Z,9.18
2018-05-16T19:57:40.377Z,7.57
2018-05-16T20:00:07.898Z,7.62
2018-05-16T20:02:35.422Z,7.40
2018-05-16T20:05:02.949Z,7.40
2018-05-16T20:07:30.527Z,7.85
2018-05-16T20:09:59.056Z,6.97
2018-05-16T20:12:26.591Z,7.70
2018-05-16T20:14:54.165Z,8.65
2018-05-16T20:17:22.443Z,7.35
2018-05-16T20:19:49.950Z,7.22
2018-05-16T20:22:17.474Z,6.28
2018-05-16T20:24:45.040Z,7.25
2018-05-16T20:27:12.597Z,7.25
2018-05-16T20:29:40.133Z,6.85
2018-05-16T20:32:07.657Z,6.40
2018-05-16T20:34:39.131Z,7.40
2018-05-16T20:37:06.674Z,7.20
2018-05-16T20:39:34.997Z,6.50
2018-05-16T20:42:03.427Z,6.93
2018-05-16T20:44:31.728Z,7.03
2018-05-16T20:46:59.234Z,6.25
2018-05-16T20:49:26.761Z,7.43
2018-05-16T20:51:54.269Z,6.25
2018-05-16T21:07:27.598Z,7.12
2018-05-16T21:09:55.120Z,7.47
2018-05-16T21:12:24.079Z,6.37
2018-05-16T21:14:52.244Z,7.62
2018-05-16T21:17:19.840Z,6.68
2018-05-16T21:19:47.401Z,7.47
2018-05-16T21:22:14.938Z,6.37
2018-05-16T21:24:42.439Z,7.05
2018-05-16T21:27:10.730Z,6.57
2018-05-16T21:29:38.568Z,6.85
2018-05-16T21:32:06.106Z,7.57
2018-05-16T21:34:33.622Z,7.12
2018-05-16T21:37:01.138Z,7.62
2018-05-16T21:39:28.655Z,8.18
2018-05-16T21:41:56.182Z,7.60
2018-05-16T21:44:24.467Z,8.13
2018-05-16T21:46:52.747Z,8.13
2018-05-16T21:49:21.648Z,8.13
2018-05-16T21:51:53.190Z,8.40
2018-05-16T21:54:21.301Z,7.93
2018-05-16T21:56:48.913Z,8.60
2018-05-16T21:59:16.469Z,7.65
2018-05-16T22:01:44.749Z,8.15
2018-05-16T22:04:13.025Z,7.47
2018-05-16T22:06:41.306Z,7.65
2018-05-16T22:09:09.586Z,8.57
2018-05-16T22:11:41.009Z,7.68
2018-05-16T22:14:08.531Z,7.90
2018-05-16T22:16:36.064Z,8.05
2018-05-16T22:19:03.554Z,8.60
2018-05-16T22:21:31.078Z,7.30
2018-05-16T22:23:59.356Z,8.30
2018-05-16T22:26:26.909Z,7.80
2018-05-16T22:28:55.194Z,8.15
2018-05-16T22:31:28.499Z,7.82
2018-05-16T22:34:01.658Z,8.10
2018-05-16T22:36:34.874Z,8.02
2018-05-16T22:39:08.142Z,7.35
2018-05-16T22:41:41.415Z,7.87
2018-05-16T22:44:14.638Z,6.47
2018-05-16T22:46:42.918Z,7.82
2018-05-16T22:49:11.180Z,7.32
2018-05-16T22:51:39.377Z,7.72
2018-05-16T22:54:07.661Z,7.60
2018-05-16T22:56:35.440Z,7.60
2018-05-16T22:59:03.312Z,6.85
2018-05-16T23:01:30.822Z,6.68
2018-05-16T23:03:59.219Z,7.45
2018-05-16T23:06:31.198Z,7.35
2018-05-16T23:08:59.254Z,7.55
2018-05-16T23:11:27.609Z,8.55
2018-05-16T23:13:55.118Z,7.22
2018-05-16T23:16:22.645Z,6.90
2018-05-16T23:18:50.938Z,6.85
2018-05-16T23:21:19.241Z,7.20
2018-05-16T23:23:46.780Z,6.10
2018-05-16T23:26:14.304Z,6.70
2018-05-16T23:28:41.857Z,6.75
2018-05-16T23:31:09.379Z,7.65
2018-05-16T23:33:36.898Z,7.57
2018-05-16T23:36:05.935Z,6.78
2018-05-16T23:38:33.428Z,7.00
2018-05-16T23:41:00.936Z,6.05
2018-05-16T23:43:29.389Z,6.70
2018-05-16T23:45:57.694Z,6.87
2018-05-16T23:48:25.963Z,6.68
2018-05-16T23:50:53.504Z,6.20
2018-05-16T23:53:21.761Z,6.80
2018-05-16T23:55:49.301Z,6.72
2018-05-16T23:58:16.890Z,6.50
